Time;durP1;ratioP1;P1;durP2;ratioP2;P2;SDS_P1;SDS_P2;PMS_P1;PMS_P2;Temp;Humidity;BMP_temperature;BMP_pressure;BME280_temperature;BME280_humidity;BME280_pressure;Samples;Min_cycle;Max_cycle;Signal;HPM_P1;HPM_P2
2021/03/15 00:00:20;;;;;;;4.32;2.70;;;5.50;99.90;;;;;;5035075;28;20500;-67
2021/03/15 00:02:51;;;;;;;4.72;3.00;;;5.50;99.90;;;;;;5017707;28;20021;-67
2021/03/15 00:05:17;;;;;;;7.57;3.35;;;5.50;99.90;;;;;;5001731;28;20481;-67
2021/03/15 00:07:43;;;;;;;7.80;3.13;;;5.50;99.90;;;;;;5035158;28;20034;-67
2021/03/15 00:10:10;;;;;;;8.10;3.42;;;5.50;99.90;;;;;;5035222;28;20045;-67
2021/03/15 00:12:39;;;;;;;4.97;3.03;;;5.50;99.90;;;;;;5017269;28;20030;-67
2021/03/15 00:15:07;;;;;;;8.57;3.15;;;5.50;99.90;;;;;;5034793;28;20040;-67
2021/03/15 00:17:33;;;;;;;5.55;3.40;;;5.50;99.90;;;;;;5034774;28;20037;-66
2021/03/15 00:19:59;;;;;;;7.75;3.65;;;5.50;99.90;;;;;;5017278;28;20026;-67
2021/03/15 00:22:25;;;;;;;7.82;3.33;;;5.40;99.90;;;;;;5034761;28;20117;-67
2021/03/15 00:24:51;;;;;;;5.28;3.03;;;5.40;99.90;;;;;;5034995;28;20065;-67
2021/03/15 00:27:16;;;;;;;4.20;2.67;;;5.40;99.90;;;;;;5034574;28;20083;-67
2021/03/15 00:29:42;;;;;;;5.50;3.22;;;5.40;99.90;;;;;;5034511;28;20046;-67
2021/03/15 00:32:08;;;;;;;7.40;2.60;;;5.40;99.90;;;;;;5034796;28;20026;-67
2021/03/15 00:34:34;;;;;;;6.22;3.38;;;5.40;99.90;;;;;;5016439;28;20045;-66
2021/03/15 00:37:01;;;;;;;6.72;3.20;;;5.30;99.90;;;;;;5034567;28;20156;-66
2021/03/15 00:39:28;;;;;;;7.70;3.17;;;5.20;99.90;;;;;;5034492;28;20509;-66
2021/03/15 00:41:54;;;;;;;7.05;3.45;;;5.10;99.90;;;;;;5034696;28;20033;-66
2021/03/15 00:44:19;;;;;;;7.55;3.05;;;5.10;99.90;;;;;;5017087;28;20025;-67
2021/03/15 00:46:45;;;;;;;6.55;2.80;;;5.00;99.90;;;;;;5016563;28;20537;-66
2021/03/15 00:49:11;;;;;;;9.00;4.15;;;5.00;99.90;;;;;;5034529;28;20026;-67
2021/03/15 00:51:37;;;;;;;4.25;2.72;;;5.00;99.90;;;;;;5034206;28;20363;-67
2021/03/15 00:54:03;;;;;;;6.93;3.17;;;5.00;99.90;;;;;;5033924;28;20489;-67
2021/03/15 00:56:29;;;;;;;7.40;3.58;;;4.90;99.90;;;;;;5034255;28;20037;-66
2021/03/15 00:58:55;;;;;;;10.70;3.97;;;4.90;99.90;;;;;;5033933;28;20390;-66
2021/03/15 01:01:21;;;;;;;11.32;3.72;;;4.90;99.90;;;;;;5016750;28;20048;-66
2021/03/15 01:03:47;;;;;;;7.88;3.72;;;5.00;99.90;;;;;;5033883;28;20029;-67
2021/03/15 01:06:14;;;;;;;6.20;3.38;;;5.00;99.90;;;;;;5034221;28;20037;-66
2021/03/15 01:08:42;;;;;;;5.70;3.25;;;5.10;99.90;;;;;;5016175;28;20552;-67
2021/03/15 01:11:08;;;;;;;4.97;3.45;;;5.10;99.90;;;;;;5033995;28;20065;-66
2021/03/15 01:13:35;;;;;;;5.63;3.13;;;5.10;99.90;;;;;;5033831;28;20036;-66
2021/03/15 01:16:01;;;;;;;8.68;4.25;;;5.10;99.90;;;;;;5033771;28;20076;-65
2021/03/15 01:18:27;;;;;;;8.77;3.75;;;5.20;99.90;;;;;;5033682;28;20030;-65
2021/03/15 01:20:53;;;;;;;10.27;4.32;;;5.20;99.90;;;;;;5016283;28;20115;-66
2021/03/15 01:23:19;;;;;;;8.65;3.95;;;5.20;99.90;;;;;;5033746;28;20036;-66
2021/03/15 01:25:45;;;;;;;11.10;4.65;;;5.20;99.90;;;;;;5033710;28;20063;-66
2021/03/15 01:28:14;;;;;;;8.88;4.75;;;5.20;99.90;;;;;;5033808;28;20116;-66
2021/03/15 01:30:43;;;;;;;12.90;5.40;;;5.10;99.90;;;;;;5033601;28;20506;-67
2021/03/15 01:33:09;;;;;;;9.25;4.78;;;5.10;99.90;;;;;;5015902;28;20057;-67
2021/03/15 01:35:36;;;;;;;11.27;5.53;;;5.10;99.90;;;;;;5033275;28;20033;-67
2021/03/15 01:38:03;;;;;;;12.00;4.57;;;5.10;99.90;;;;;;5033579;28;20032;-67
2021/03/15 01:40:29;;;;;;;9.52;4.35;;;5.10;99.90;;;;;;5033365;28;20025;-67
2021/03/15 01:42:55;;;;;;;8.68;4.30;;;5.00;99.90;;;;;;5033338;28;20355;-67
2021/03/15 01:45:21;;;;;;;8.77;4.25;;;4.90;99.90;;;;;;5015545;28;20063;-67
2021/03/15 01:47:47;;;;;;;6.38;4.35;;;4.80;99.90;;;;;;5015403;28;20394;-67
2021/03/15 01:50:16;;;;;;;9.95;4.60;;;4.70;99.90;;;;;;5033386;28;20036;-67
2021/03/15 01:52:43;;;;;;;9.75;4.60;;;4.60;99.90;;;;;;4999027;28;20658;-67
2021/03/15 01:55:12;;;;;;;12.15;5.15;;;4.50;99.90;;;;;;5032884;28;20386;-66
2021/03/15 01:57:38;;;;;;;11.70;4.80;;;4.40;99.90;;;;;;5015537;28;20029;-67
2021/03/15 02:00:08;;;;;;;13.15;5.25;;;4.40;99.90;;;;;;5033065;28;20116;-67
2021/03/15 02:02:39;;;;;;;16.75;7.28;;;4.40;99.90;;;;;;5033428;28;20033;-66
2021/03/15 02:05:06;;;;;;;13.00;5.03;;;4.40;99.90;;;;;;5015836;28;20038;-66
2021/03/15 02:07:32;;;;;;;11.55;5.30;;;4.40;99.90;;;;;;5015015;28;20029;-66
2021/03/15 02:09:58;;;;;;;13.27;6.00;;;4.40;99.90;;;;;;5032777;28;20037;-67
2021/03/15 02:13:21;;;;;;;10.73;5.55;;;4.30;99.90;;;;;;5032640;28;20075;-67
2021/03/15 02:16:02;;;;;;;12.02;5.13;;;4.30;99.90;;;;;;5015089;28;20087;-67
2021/03/15 02:19:21;;;;;;;16.98;5.90;;;4.20;99.90;;;;;;5032502;28;20041;-67
2021/03/15 02:22:30;;;;;;;12.52;6.07;;;4.20;99.90;;;;;;5017101;28;20045;-67
2021/03/15 02:25:51;;;;;;;11.98;4.90;;;4.30;99.90;;;;;;5014752;28;20029;-67
2021/03/15 02:28:38;;;;;;;14.05;5.82;;;4.30;99.90;;;;;;5032707;28;20060;-67
2021/03/15 02:31:35;;;;;;;15.48;4.40;;;4.20;99.90;;;;;;5032760;28;20043;-66
2021/03/15 02:34:12;;;;;;;12.43;4.43;;;4.10;99.90;;;;;;5031963;28;20041;-67
2021/03/15 02:36:45;;;;;;;13.70;4.50;;;4.10;99.90;;;;;;5015755;28;20397;-67
2021/03/15 02:39:18;;;;;;;12.05;5.60;;;4.10;99.90;;;;;;5032595;28;20034;-67
2021/03/15 02:41:46;;;;;;;9.10;4.38;;;4.10;99.90;;;;;;5032203;28;20099;-67
2021/03/15 02:44:14;;;;;;;9.88;4.28;;;4.00;99.90;;;;;;5015004;28;20036;-66
2021/03/15 02:46:43;;;;;;;8.27;4.00;;;4.00;99.90;;;;;;5014901;28;20161;-67
2021/03/15 02:49:14;;;;;;;8.10;4.22;;;4.00;99.90;;;;;;5015007;28;20486;-67
2021/03/15 02:51:42;;;;;;;12.20;4.43;;;4.00;99.90;;;;;;5015106;28;20068;-66
2021/03/15 02:54:12;;;;;;;16.55;4.63;;;4.00;99.90;;;;;;5032196;28;20084;-67
2021/03/15 02:56:46;;;;;;;13.93;5.43;;;4.00;99.90;;;;;;5014774;28;20042;-67
2021/03/15 02:59:16;;;;;;;13.07;4.68;;;4.00;99.90;;;;;;5014850;28;20072;-67
2021/03/15 03:01:44;;;;;;;14.95;4.50;;;4.00;99.90;;;;;;5015150;28;20030;-67
2021/03/15 03:04:11;;;;;;;13.13;4.10;;;4.00;99.90;;;;;;5014375;28;20367;-67
2021/03/15 03:06:40;;;;;;;12.98;5.15;;;4.00;99.90;;;;;;5014373;28;20022;-67
2021/03/15 03:09:11;;;;;;;11.23;4.10;;;4.00;99.90;;;;;;5014638;28;20041;-67
2021/03/15 03:11:38;;;;;;;10.70;4.30;;;4.10;99.90;;;;;;5015017;28;20048;-67
2021/03/15 03:14:07;;;;;;;13.23;4.40;;;4.10;99.90;;;;;;5031806;28;20191;-67
2021/03/15 03:16:40;;;;;;;9.57;4.35;;;4.10;99.90;;;;;;5014300;28;20394;-67
2021/03/15 03:19:09;;;;;;;11.07;4.13;;;4.00;99.90;;;;;;5032904;28;20053;-67
2021/03/15 03:21:39;;;;;;;9.07;4.47;;;4.00;99.90;;;;;;5036054;28;20421;-67
2021/03/15 03:24:07;;;;;;;11.07;4.57;;;4.00;99.90;;;;;;5018751;28;20033;-67
2021/03/15 03:26:34;;;;;;;8.95;4.25;;;4.00;99.90;;;;;;5001555;28;20026;-67
2021/03/15 03:29:00;;;;;;;9.95;4.50;;;3.90;99.90;;;;;;5018579;28;20033;-67
2021/03/15 03:31:33;;;;;;;7.85;4.35;;;3.90;99.90;;;;;;5035958;28;20470;-68
2021/03/15 03:34:00;;;;;;;13.00;4.30;;;3.90;99.90;;;;;;5035529;28;20056;-67
2021/03/15 03:36:26;;;;;;;11.73;4.97;;;3.90;99.90;;;;;;5018025;28;20036;-67
2021/03/15 03:38:56;;;;;;;13.55;4.90;;;3.90;99.90;;;;;;5017848;28;20033;-67
2021/03/15 03:41:22;;;;;;;13.05;4.45;;;3.90;99.90;;;;;;5018184;28;20029;-67
2021/03/15 03:43:48;;;;;;;9.95;4.30;;;3.90;99.90;;;;;;5017912;28;20026;-67
2021/03/15 03:46:15;;;;;;;22.08;4.72;;;3.90;99.90;;;;;;5035712;28;20172;-68
2021/03/15 03:48:41;;;;;;;12.35;4.28;;;4.00;99.90;;;;;;5035489;28;20064;-67
2021/03/15 03:51:09;;;;;;;10.30;3.63;;;4.10;99.90;;;;;;5018032;28;20029;-67
2021/03/15 03:53:57;;;;;;;14.68;6.18;;;4.20;99.90;;;;;;5018066;28;20037;-67
2021/03/15 03:57:05;;;;;;;12.55;3.63;;;4.20;99.90;;;;;;5018503;28;20116;-67
2021/03/15 03:59:34;;;;;;;9.73;3.65;;;4.30;99.90;;;;;;5018083;28;20116;-67
2021/03/15 04:02:03;;;;;;;15.35;4.68;;;4.30;99.90;;;;;;5017903;28;20068;-67
2021/03/15 04:04:37;;;;;;;6.40;3.58;;;4.50;99.90;;;;;;5001275;28;20394;-67
2021/03/15 04:07:05;;;;;;;13.55;4.15;;;4.50;99.90;;;;;;5017919;28;20363;-67
2021/03/15 04:09:36;;;;;;;11.27;4.03;;;4.60;99.90;;;;;;5017819;28;20033;-67
2021/03/15 04:12:19;;;;;;;15.68;5.10;;;4.60;99.90;;;;;;5017391;28;20052;-67
2021/03/15 04:14:55;;;;;;;9.32;3.85;;;4.60;99.90;;;;;;5017677;28;20076;-67
2021/03/15 04:17:32;;;;;;;9.32;4.10;;;4.70;99.90;;;;;;5017563;28;20490;-67
2021/03/15 04:20:04;;;;;;;12.00;3.60;;;4.70;99.90;;;;;;5018062;28;20036;-67
2021/03/15 04:22:35;;;;;;;9.98;3.45;;;4.70;99.90;;;;;;5017711;28;20130;-67
2021/03/15 04:25:03;;;;;;;13.38;3.83;;;4.60;99.90;;;;;;5034869;28;20030;-67
2021/03/15 04:27:31;;;;;;;9.45;4.32;;;4.60;99.90;;;;;;5016898;28;20042;-67
2021/03/15 04:29:58;;;;;;;13.90;3.50;;;4.60;99.90;;;;;;5032281;28;20037;-67
2021/03/15 04:32:26;;;;;;;13.45;4.97;;;4.50;99.90;;;;;;5034828;28;20033;-66
2021/03/15 04:34:53;;;;;;;11.25;3.60;;;4.40;99.90;;;;;;5013616;28;20046;-66
2021/03/15 04:37:20;;;;;;;13.25;4.53;;;4.50;99.90;;;;;;4997473;28;20030;-66
2021/03/15 04:39:47;;;;;;;13.27;4.45;;;4.40;99.90;;;;;;4997556;28;20034;-66
2021/03/15 04:42:14;;;;;;;9.32;3.92;;;4.50;99.90;;;;;;5013451;28;20399;-66
2021/03/15 04:44:41;;;;;;;9.90;4.13;;;4.50;99.90;;;;;;5013463;28;20034;-66
2021/03/15 04:47:08;;;;;;;11.02;4.45;;;4.50;99.90;;;;;;5013812;28;20479;-65
2021/03/15 04:49:37;;;;;;;11.82;4.47;;;4.50;99.90;;;;;;5012805;28;20042;-66
2021/03/15 04:52:03;;;;;;;13.73;4.93;;;4.50;99.90;;;;;;5001073;28;20037;-68
2021/03/15 04:54:29;;;;;;;13.57;4.05;;;4.50;99.90;;;;;;5004126;28;20034;-68
2021/03/15 04:56:57;;;;;;;10.43;4.10;;;4.50;99.90;;;;;;5013698;28;20103;-67
2021/03/15 04:59:24;;;;;;;10.02;3.78;;;4.50;99.90;;;;;;5011898;28;20034;-67
2021/03/15 05:01:50;;;;;;;9.45;3.30;;;4.60;99.90;;;;;;5012155;28;20120;-67
2021/03/15 05:04:19;;;;;;;8.45;3.40;;;4.60;99.90;;;;;;5012777;28;20033;-67
2021/03/15 05:06:47;;;;;;;9.85;3.75;;;4.60;99.90;;;;;;4998548;28;20099;-66
2021/03/15 05:09:15;;;;;;;9.18;3.70;;;4.60;99.90;;;;;;5007950;28;20022;-67
2021/03/15 05:11:42;;;;;;;13.52;4.32;;;4.70;99.90;;;;;;5004988;28;20200;-66
2021/03/15 05:14:09;;;;;;;8.30;3.00;;;4.70;99.90;;;;;;4995493;28;20062;-66
2021/03/15 05:16:39;;;;;;;11.85;3.25;;;4.70;99.90;;;;;;4996107;28;20068;-66
2021/03/15 05:19:11;;;;;;;10.98;4.22;;;4.70;99.90;;;;;;5012258;28;20513;-66
2021/03/15 05:21:42;;;;;;;20.60;3.92;;;4.70;99.90;;;;;;5012619;28;20500;-65
2021/03/15 05:24:09;;;;;;;4.30;2.95;;;4.70;99.90;;;;;;5014035;28;20087;-64
2021/03/15 05:26:39;;;;;;;13.73;3.97;;;4.70;99.90;;;;;;5013704;28;20045;-65
2021/03/15 05:29:13;;;;;;;9.35;2.92;;;4.70;99.90;;;;;;5010770;28;20029;-64
2021/03/15 05:31:45;;;;;;;7.45;3.22;;;4.70;99.90;;;;;;5013892;28;20065;-64
2021/03/15 05:34:12;;;;;;;;;;;4.70;99.90;;;;;;5002083;28;20073;-65
2021/03/15 05:36:39;;;;;;;12.38;4.00;;;4.70;99.90;;;;;;4999929;28;20358;-65
2021/03/15 05:39:06;;;;;;;7.32;3.47;;;4.70;99.90;;;;;;5010588;28;20483;-66
2021/03/15 05:42:22;;;;;;;12.18;3.97;;;4.70;99.90;;;;;;5012745;28;20509;-65
2021/03/15 05:45:00;;;;;;;8.50;3.17;;;4.70;99.90;;;;;;4995950;28;20117;-65
2021/03/15 05:48:13;;;;;;;10.07;3.53;;;4.70;99.90;;;;;;5013388;28;20038;-65
2021/03/15 05:51:00;;;;;;;9.60;4.18;;;4.70;99.90;;;;;;5013199;28;20038;-65
2021/03/15 05:54:18;;;;;;;8.50;3.88;;;4.70;99.90;;;;;;5013455;28;20108;-66
2021/03/15 05:57:20;;;;;;;14.30;3.70;;;4.70;99.90;;;;;;5013381;28;20030;-65
2021/03/15 06:00:33;;;;;;;9.90;3.60;;;4.70;99.90;;;;;;5013000;28;20046;-66
2021/03/15 06:03:51;;;;;;;7.95;3.75;;;4.70;99.90;;;;;;5000563;28;20061;-66
2021/03/15 06:06:21;;;;;;;10.90;3.10;;;4.70;99.90;;;;;;4977826;28;20046;-65
2021/03/15 06:08:50;;;;;;;7.70;3.90;;;4.70;99.90;;;;;;4993326;28;20511;-65
2021/03/15 06:11:21;;;;;;;10.27;3.47;;;4.60;99.90;;;;;;4992485;28;20042;-64
2021/03/15 06:13:47;;;;;;;14.85;3.90;;;4.60;99.90;;;;;;4992846;28;20388;-65
2021/03/15 06:16:15;;;;;;;10.93;4.03;;;4.60;99.90;;;;;;4991971;28;20455;-66
2021/03/15 06:18:41;;;;;;;6.50;3.15;;;4.70;99.90;;;;;;4993385;28;20042;-65
2021/03/15 06:21:11;;;;;;;12.63;3.63;;;4.60;99.90;;;;;;4993016;28;20026;-66
2021/03/15 06:23:38;;;;;;;14.57;3.65;;;4.60;99.90;;;;;;4993345;28;20034;-65
2021/03/15 06:26:07;;;;;;;6.50;2.72;;;4.60;99.90;;;;;;4993331;28;20081;-67
2021/03/15 06:28:32;;;;;;;7.75;2.78;;;4.50;99.90;;;;;;4992009;28;20042;-74
2021/03/15 06:30:58;;;;;;;8.57;2.38;;;4.40;99.90;;;;;;4992925;28;20042;-68
2021/03/15 06:33:26;;;;;;;5.35;2.50;;;4.30;99.90;;;;;;4975214;28;20065;-68
2021/03/15 06:36:00;;;;;;;3.63;2.13;;;4.30;99.90;;;;;;5030317;28;20061;-67
2021/03/15 06:38:28;;;;;;;7.82;2.28;;;4.20;99.90;;;;;;5032249;28;20029;-67
2021/03/15 06:41:05;;;;;;;5.05;2.50;;;4.10;99.90;;;;;;5032305;28;20056;-68
2021/03/15 06:43:32;;;;;;;4.47;2.03;;;4.20;99.90;;;;;;4966516;28;20553;-67
2021/03/15 06:45:58;;;;;;;4.63;2.22;;;4.10;99.90;;;;;;5032283;28;20048;-68
2021/03/15 06:48:25;;;;;;;5.88;2.60;;;4.20;99.90;;;;;;5032061;28;20550;-68
2021/03/15 06:50:54;;;;;;;5.63;2.20;;;4.20;99.90;;;;;;5031704;28;20069;-68
2021/03/15 06:53:20;;;;;;;6.82;2.20;;;4.10;99.90;;;;;;5014434;28;20469;-66
2021/03/15 06:55:52;;;;;;;6.35;2.22;;;4.20;99.90;;;;;;5031870;28;20084;-68
2021/03/15 06:58:25;;;;;;;8.88;2.53;;;4.20;99.90;;;;;;5014635;28;20025;-67
2021/03/15 07:01:11;;;;;;;4.28;2.15;;;4.30;99.90;;;;;;5014424;28;20037;-67
2021/03/15 07:03:38;;;;;;;7.93;2.13;;;4.30;99.90;;;;;;5030979;28;20112;-66
2021/03/15 07:06:05;;;;;;;6.07;1.70;;;4.40;99.90;;;;;;5011823;28;20678;-67
2021/03/15 07:08:31;;;;;;;5.35;1.60;;;4.40;99.90;;;;;;5012111;28;20026;-68
2021/03/15 07:10:57;;;;;;;4.97;1.67;;;4.40;99.90;;;;;;5012310;28;20080;-66
2021/03/15 07:13:33;;;;;;;4.68;1.63;;;4.40;99.90;;;;;;5012388;28;20025;-66
2021/03/15 07:15:59;;;;;;;4.07;1.67;;;4.50;99.90;;;;;;4995221;28;20072;-67
2021/03/15 07:18:34;;;;;;;4.25;1.55;;;4.50;99.90;;;;;;5011386;28;20042;-67
2021/03/15 07:21:05;;;;;;;5.55;1.73;;;4.50;99.90;;;;;;5012081;28;20033;-67
2021/03/15 07:23:44;;;;;;;6.78;2.50;;;4.60;99.90;;;;;;5011955;28;20034;-66
2021/03/15 07:26:18;;;;;;;3.08;1.50;;;4.60;99.90;;;;;;5012170;28;20061;-67
2021/03/15 07:28:45;;;;;;;4.53;1.85;;;4.60;99.90;;;;;;5011099;28;20061;-66
2021/03/15 07:31:21;;;;;;;7.25;2.58;;;4.70;99.90;;;;;;5011735;28;20034;-66
2021/03/15 07:34:06;;;;;;;7.60;3.15;;;4.60;99.90;;;;;;5013660;28;20050;-66
2021/03/15 07:36:45;;;;;;;2.85;1.40;;;4.70;99.90;;;;;;5013962;28;20613;-66
2021/03/15 07:39:11;;;;;;;3.88;2.03;;;4.80;99.90;;;;;;5015724;28;20109;-67
2021/03/15 07:41:43;;;;;;;5.22;2.40;;;4.90;99.90;;;;;;5031580;28;20112;-66
2021/03/15 07:44:33;;;;;;;4.50;1.98;;;4.80;99.90;;;;;;5031752;28;20033;-67
2021/03/15 07:47:05;;;;;;;4.03;1.93;;;4.80;99.90;;;;;;5031531;28;20037;-66
2021/03/15 07:49:33;;;;;;;;;;;4.80;99.90;;;;;;5032145;28;20040;-66
2021/03/15 07:52:19;;;;;;;8.48;2.75;;;4.90;99.90;;;;;;5031726;28;19917;-66
2021/03/15 07:54:45;;;;;;;12.18;3.42;;;4.90;99.90;;;;;;5013519;28;20076;-67
2021/03/15 07:57:23;;;;;;;9.32;2.58;;;4.90;99.90;;;;;;5031700;28;20030;-67
2021/03/15 07:59:59;;;;;;;6.35;2.45;;;4.90;99.90;;;;;;5031693;28;20463;-67
2021/03/15 08:02:31;;;;;;;8.52;4.78;;;4.90;99.90;;;;;;5013715;28;20421;-66
2021/03/15 08:04:58;;;;;;;3.50;1.90;;;4.90;99.90;;;;;;5019765;28;20348;-67
2021/03/15 08:07:25;;;;;;;2.85;1.65;;;4.80;99.90;;;;;;5015537;28;20660;-67
2021/03/15 08:09:57;;;;;;;3.88;2.35;;;4.90;99.90;;;;;;5014969;28;20044;-66
2021/03/15 08:12:33;;;;;;;4.60;2.10;;;4.90;99.90;;;;;;5015443;28;20391;-66
2021/03/15 08:15:09;;;;;;;3.72;1.92;;;4.90;99.90;;;;;;5014793;28;20467;-66
2021/03/15 08:17:41;;;;;;;3.95;2.38;;;4.90;99.90;;;;;;5015286;28;20482;-66
2021/03/15 08:20:08;;;;;;;10.55;3.58;;;4.90;99.90;;;;;;5015031;28;20072;-66
2021/03/15 08:22:38;;;;;;;5.05;3.45;;;5.00;99.90;;;;;;5015227;28;20040;-66
2021/03/15 08:25:09;;;;;;;8.63;3.90;;;5.00;99.90;;;;;;5014982;28;20034;-66
2021/03/15 08:27:43;;;;;;;4.25;2.55;;;5.00;99.90;;;;;;5015109;28;20334;-65
2021/03/15 08:30:23;;;;;;;5.18;3.45;;;5.10;99.90;;;;;;5014813;28;20033;-65
2021/03/15 08:32:50;;;;;;;6.95;3.05;;;5.20;99.90;;;;;;4997981;28;20475;-65
2021/03/15 08:35:18;;;;;;;5.72;3.22;;;5.30;99.90;;;;;;5011201;28;20402;-66
2021/03/15 08:37:57;;;;;;;6.07;2.33;;;5.30;99.90;;;;;;5034567;28;20056;-66
2021/03/15 08:40:40;;;;;;;3.20;1.95;;;5.40;99.90;;;;;;5034451;28;20486;-65
2021/03/15 08:43:43;;;;;;;3.63;2.08;;;5.40;99.90;;;;;;5034329;28;20061;-66
2021/03/15 08:46:13;;;;;;;3.85;2.33;;;5.50;99.90;;;;;;5000899;28;20041;-67
2021/03/15 08:48:39;;;;;;;3.58;2.05;;;5.50;99.90;;;;;;5034527;28;20026;-66
2021/03/15 08:51:13;;;;;;;8.60;3.53;;;5.50;99.90;;;;;;5034259;28;20120;-66
2021/03/15 08:53:42;;;;;;;4.78;3.20;;;5.50;99.90;;;;;;5034437;28;20025;-66
2021/03/15 08:56:20;;;;;;;4.55;2.88;;;5.40;99.90;;;;;;5034190;28;20068;-66
2021/03/15 08:58:53;;;;;;;5.60;3.47;;;5.50;99.90;;;;;;5034338;28;20091;-66
2021/03/15 09:01:28;;;;;;;6.88;3.40;;;5.60;99.90;;;;;;5034097;28;20033;-66
2021/03/15 09:03:58;;;;;;;10.38;3.30;;;5.60;99.90;;;;;;5030286;28;20402;-66
2021/03/15 09:06:30;;;;;;;5.25;2.88;;;5.80;99.90;;;;;;4996970;28;20033;-66
2021/03/15 09:09:00;;;;;;;9.18;2.72;;;5.90;99.90;;;;;;5014191;28;20037;-66
2021/03/15 09:11:38;;;;;;;3.80;2.03;;;6.20;99.90;;;;;;5014395;28;20034;-66
2021/03/15 09:14:16;;;;;;;4.97;2.03;;;6.50;99.90;;;;;;5013891;28;20034;-66
2021/03/15 09:16:48;;;;;;;4.68;2.47;;;6.60;99.90;;;;;;4995359;28;20529;-66
2021/03/15 09:19:36;;;;;;;3.83;2.10;;;6.80;99.90;;;;;;4996410;28;20438;-66
2021/03/15 09:22:05;;;;;;;2.95;1.40;;;7.00;99.90;;;;;;5014066;28;20033;-66
2021/03/15 09:24:45;;;;;;;3.08;1.90;;;7.10;99.90;;;;;;5013815;28;20041;-66
2021/03/15 09:27:30;;;;;;;5.38;1.70;;;7.10;99.90;;;;;;5013837;28;20076;-66
2021/03/15 09:30:22;;;;;;;1.77;1.10;;;7.20;99.90;;;;;;5013891;28;20153;-66
2021/03/15 09:32:57;;;;;;;2.63;1.30;;;7.20;99.90;;;;;;5013805;28;20376;-66
2021/03/15 09:35:32;;;;;;;1.92;1.02;;;7.30;99.90;;;;;;5011617;28;20080;-66
2021/03/15 09:38:03;;;;;;;1.65;0.80;;;7.30;99.90;;;;;;5033558;28;20027;-66
2021/03/15 09:40:41;;;;;;;2.75;1.10;;;7.30;99.90;;;;;;5015701;28;20033;-66
2021/03/15 09:43:08;;;;;;;1.80;1.10;;;7.40;99.90;;;;;;5032919;28;20425;-66
2021/03/15 09:45:39;;;;;;;2.20;0.60;;;7.40;99.90;;;;;;5033197;28;20025;-66
2021/03/15 09:48:20;;;;;;;;;;;7.50;99.90;;;;;;5015957;28;20033;-65
2021/03/15 09:50:52;;;;;;;5.60;0.80;;;7.50;99.90;;;;;;5032719;28;20400;-66
2021/03/15 09:53:18;;;;;;;2.85;0.85;;;7.50;99.90;;;;;;5033074;28;20079;-65
2021/03/15 09:55:45;;;;;;;1.05;0.60;;;7.50;99.90;;;;;;5032693;28;20498;-64
2021/03/15 09:58:14;;;;;;;0.70;0.52;;;7.40;99.90;;;;;;5033149;28;20034;-64
2021/03/15 10:00:41;;;;;;;0.98;0.68;;;7.50;99.90;;;;;;5015576;28;20178;-64
2021/03/15 10:03:07;;;;;;;0.70;0.50;;;7.70;99.90;;;;;;5032978;28;20116;-64
2021/03/15 10:05:33;;;;;;;1.13;0.60;;;8.00;99.90;;;;;;4982155;28;20060;-65
2021/03/15 10:07:59;;;;;;;2.65;0.73;;;8.20;99.90;;;;;;5011841;28;20117;-65
2021/03/15 10:10:25;;;;;;;0.47;0.40;;;8.50;99.90;;;;;;5013032;28;20091;-66
2021/03/15 10:13:07;;;;;;;0.40;0.40;;;8.80;99.90;;;;;;4995107;28;20022;-64
2021/03/15 10:15:32;;;;;;;0.85;0.60;;;8.90;99.90;;;;;;5013104;28;20089;-65
2021/03/15 10:17:58;;;;;;;0.60;0.50;;;8.90;99.90;;;;;;5013097;28;20034;-64
2021/03/15 10:20:30;;;;;;;0.68;0.50;;;8.80;99.90;;;;;;4995156;28;20045;-64
2021/03/15 10:22:57;;;;;;;0.70;0.60;;;8.60;99.90;;;;;;5011812;28;20475;-65
2021/03/15 10:25:23;;;;;;;1.13;0.77;;;8.50;99.90;;;;;;5011567;28;20045;-64
2021/03/15 10:27:59;;;;;;;1.05;0.70;;;8.30;99.90;;;;;;5012705;28;20030;-64
2021/03/15 10:30:33;;;;;;;1.08;0.75;;;8.20;99.90;;;;;;5012922;28;20026;-63
2021/03/15 10:33:01;;;;;;;0.90;0.70;;;8.20;99.90;;;;;;5012585;28;20037;-64
2021/03/15 10:35:29;;;;;;;1.00;0.70;;;8.30;99.90;;;;;;5012570;28;20048;-64
2021/03/15 10:38:01;;;;;;;1.30;0.80;;;8.30;99.90;;;;;;5012801;28;20065;-62
2021/03/15 10:40:28;;;;;;;2.67;0.70;;;8.30;99.90;;;;;;4979254;28;20026;-63
2021/03/15 10:42:55;;;;;;;1.30;0.80;;;8.20;99.90;;;;;;4994930;28;20443;-64
2021/03/15 10:45:24;;;;;;;1.40;0.90;;;8.20;99.90;;;;;;5016025;28;20021;-64
2021/03/15 10:47:50;;;;;;;1.33;0.60;;;8.20;99.90;;;;;;5032307;28;20033;-64
2021/03/15 10:50:37;;;;;;;0.68;0.55;;;8.30;99.90;;;;;;5032219;28;20120;-64
2021/03/15 10:53:18;;;;;;;1.25;0.75;;;8.60;99.90;;;;;;5031978;28;20033;-64
2021/03/15 10:55:46;;;;;;;1.42;0.82;;;8.80;99.90;;;;;;5032253;28;20029;-63
2021/03/15 10:58:17;;;;;;;1.90;1.10;;;8.80;99.90;;;;;;5014716;28;20140;-63
2021/03/15 11:00:52;;;;;;;2.67;0.90;;;8.80;99.90;;;;;;5032236;28;20034;-62
2021/03/15 11:03:21;;;;;;;2.53;0.77;;;8.90;99.90;;;;;;5031963;28;20089;-64
2021/03/15 11:06:00;;;;;;;1.80;0.93;;;8.90;99.90;;;;;;5013088;28;20378;-63
2021/03/15 11:08:26;;;;;;;1.75;1.05;;;8.70;99.90;;;;;;4994602;28;20037;-63
2021/03/15 11:10:52;;;;;;;3.30;1.73;;;8.60;99.90;;;;;;5012207;28;20026;-63
2021/03/15 11:13:21;;;;;;;3.72;1.75;;;8.70;99.90;;;;;;4978562;28;20029;-64
2021/03/15 11:15:47;;;;;;;2.83;1.63;;;8.70;99.90;;;;;;5012094;28;20029;-64
2021/03/15 11:18:25;;;;;;;5.43;2.00;;;8.80;99.90;;;;;;5012047;28;20037;-64
2021/03/15 11:21:00;;;;;;;3.72;1.67;;;9.10;99.90;;;;;;5012031;28;20109;-64
2021/03/15 11:23:38;;;;;;;4.03;2.00;;;9.50;99.90;;;;;;5012106;28;20058;-63
2021/03/15 11:26:11;;;;;;;2.25;1.40;;;9.90;99.90;;;;;;5012211;28;20105;-64
2021/03/15 11:28:43;;;;;;;3.22;1.50;;;10.20;99.90;;;;;;5012000;28;20062;-64
2021/03/15 11:31:18;;;;;;;3.90;1.23;;;10.30;99.30;;;;;;5011917;28;20034;-64
2021/03/15 11:33:52;;;;;;;4.15;2.20;;;10.20;99.90;;;;;;4996229;28;20049;-64
2021/03/15 11:36:20;;;;;;;3.70;1.38;;;10.20;99.90;;;;;;5031632;28;20374;-65
2021/03/15 11:38:52;;;;;;;2.97;1.33;;;10.40;99.40;;;;;;5014475;28;20049;-64
2021/03/15 11:41:24;;;;;;;6.65;1.38;;;10.20;97.20;;;;;;5034333;28;20037;-65
2021/03/15 11:43:51;;;;;;;2.80;1.35;;;10.00;97.50;;;;;;5035644;28;20033;-64
2021/03/15 11:46:18;;;;;;;2.10;1.20;;;10.00;97.90;;;;;;4964219;28;20076;-64
2021/03/15 11:48:46;;;;;;;3.60;1.67;;;10.20;97.80;;;;;;5035461;28;20449;-65
2021/03/15 11:51:14;;;;;;;6.82;1.73;;;10.70;97.20;;;;;;5035324;28;20088;-65
2021/03/15 11:53:42;;;;;;;3.45;2.15;;;11.10;96.70;;;;;;5035397;28;20038;-65
2021/03/15 11:56:08;;;;;;;5.90;1.67;;;12.00;94.60;;;;;;5035071;28;20033;-64
2021/03/15 11:58:35;;;;;;;2.45;1.48;;;12.50;92.80;;;;;;5035385;28;20029;-64
2021/03/15 12:01:03;;;;;;;4.05;1.65;;;13.70;91.60;;;;;;5035242;28;20021;-64
2021/03/15 12:03:28;;;;;;;6.80;2.10;;;15.00;83.30;;;;;;5034884;28;20037;-65
2021/03/15 12:05:54;;;;;;;4.93;1.60;;;14.90;79.00;;;;;;5014896;28;20696;-65
2021/03/15 12:08:20;;;;;;;7.13;2.00;;;14.60;81.30;;;;;;5015235;28;20205;-64
2021/03/15 12:10:46;;;;;;;3.67;2.00;;;14.40;79.30;;;;;;5015237;28;20452;-66
2021/03/15 12:13:12;;;;;;;2.75;1.25;;;14.10;81.40;;;;;;5015012;28;20030;-65
2021/03/15 12:15:38;;;;;;;3.85;1.90;;;15.10;78.50;;;;;;5015356;28;20084;-65
2021/03/15 12:18:09;;;;;;;9.00;1.90;;;14.80;75.20;;;;;;5015131;28;20080;-65
2021/03/15 12:20:35;;;;;;;;;;;13.40;84.60;;;;;;5014857;28;20048;-64
2021/03/15 12:23:03;;;;;;;4.50;2.17;;;13.10;88.20;;;;;;4997072;28;19920;-66
2021/03/15 12:25:30;;;;;;;6.03;2.03;;;13.30;90.00;;;;;;4997694;28;20033;-64
2021/03/15 12:27:56;;;;;;;3.03;1.85;;;12.80;89.50;;;;;;4997466;28;20072;-64
2021/03/15 12:30:23;;;;;;;5.40;1.98;;;12.10;91.60;;;;;;4997004;28;20038;-65
2021/03/15 12:32:50;;;;;;;3.65;1.60;;;12.50;91.40;;;;;;5014838;28;20475;-65
2021/03/15 12:35:17;;;;;;;3.67;1.90;;;12.80;91.10;;;;;;5011176;28;20080;-65
2021/03/15 12:37:43;;;;;;;3.17;1.50;;;12.80;90.10;;;;;;5016572;28;20117;-64
2021/03/15 12:40:10;;;;;;;2.97;1.63;;;12.10;91.90;;;;;;5016578;28;20429;-65
2021/03/15 12:42:36;;;;;;;2.67;1.50;;;11.90;93.40;;;;;;5015057;28;20055;-64
2021/03/15 12:45:05;;;;;;;7.57;2.22;;;13.10;91.40;;;;;;5034636;28;20475;-65
2021/03/15 12:47:30;;;;;;;3.65;1.58;;;14.00;85.60;;;;;;5016054;28;20532;-65
2021/03/15 12:49:56;;;;;;;8.10;1.38;;;13.30;90.00;;;;;;5034432;28;20033;-65
2021/03/15 12:52:22;;;;;;;5.68;1.60;;;12.70;85.70;;;;;;5033746;28;20025;-65
2021/03/15 12:54:47;;;;;;;2.08;1.05;;;14.10;82.30;;;;;;5034092;28;20037;-64
2021/03/15 12:57:13;;;;;;;3.20;1.50;;;14.90;74.40;;;;;;5034215;28;20049;-65
2021/03/15 12:59:39;;;;;;;1.85;1.00;;;14.70;73.90;;;;;;5034237;28;20466;-65
2021/03/15 13:02:06;;;;;;;3.08;1.15;;;14.10;75.20;;;;;;4999838;28;20371;-66
2021/03/15 13:04:32;;;;;;;6.50;1.48;;;13.30;82.60;;;;;;5025416;28;20414;-64
2021/03/15 13:06:59;;;;;;;4.82;1.25;;;12.80;85.70;;;;;;5014229;28;20038;-64
2021/03/15 13:09:26;;;;;;;2.35;1.25;;;12.20;89.20;;;;;;5014063;28;20065;-65
2021/03/15 13:11:51;;;;;;;3.42;1.50;;;11.60;91.80;;;;;;5014296;28;20475;-64
2021/03/15 13:14:18;;;;;;;4.45;1.85;;;11.10;93.30;;;;;;5014145;28;20061;-64